WEATHER DATA

YESTERDAY
Time Temp. Dewp. Hum. Bar. 1h Prec. 24h Prec.
00:08 14.8 5.3 53 1023.3 0.0000 0.0000
00:28 14.3 5.4 55 1023.1 0.0000 0.0000
00:38 14 5.4 56 1023 0.0000 0.0000
00:48 13.5 5.2 57 1023 0.0000 0.0000
00:59 13 5.2 59 1023 0.0000 0.0000
01:09 12.5 5 60 1022.8 0.0000 0.0000
01:18 12.1 4.8 61 1022.7 0.0000 0.0000
01:28 11.7 4.9 63 1022.6 0.0000 0.0000
01:39 11.4 4.8 64 1022.5 0.0000 0.0000
01:49 11.1 4.8 65 1022.4 0.0000 0.0000
01:59 10.9 5 67 1022.4 0.0000 0.0000
02:09 10.8 4.9 67 1022.3 0.0000 0.0000
02:19 10.7 4.8 67 1022.2 0.0000 0.0000
02:29 10.6 4.9 68 1022.2 0.0000 0.0000
02:39 10.3 4.9 69 1022.1 0.0000 0.0000
02:50 10 4.8 70 1021.9 0.0000 0.0000
02:59 9.8 4.6 70 1021.9 0.0000 0.0000
03:09 9.7 4.7 71 1021.9 0.0000 0.0000
03:19 9.6 4.6 71 1021.9 0.0000 0.0000
03:30 9.6 4.8 72 1021.9 0.0000 0.0000
03:40 9.6 5 73 1021.7 0.0000 0.0000
03:50 9.7 5.1 73 1021.8 0.0000 0.0000
04:00 9.8 5.4 74 1021.8 0.0000 0.0000
04:10 9.8 5.4 74 1021.7 0.0000 0.0000
04:20 10 5.4 73 1021.7 0.0000 0.0000
04:30 10.1 5.5 73 1021.6 0.0000 0.0000
04:41 10.1 5.7 74 1021.5 0.0000 0.0000
04:50 10.2 5.8 74 1021.5 0.0000 0.0000
05:00 10.2 5.6 73 1021.4 0.0000 0.0000
05:11 10.2 5.6 73 1021.3 0.0000 0.0000
05:21 10.2 5.6 73 1021.2 0.0000 0.0000
05:31 10.2 5.6 73 1021.2 0.0000 0.0000
05:41 10.3 5.7 73 1021.1 0.0000 0.0000
05:51 10.4 5.8 73 1021 0.0000 0.0000
06:01 10.4 6 74 1020.9 0.0000 0.0000
06:11 10.8 6 72 1020.8 0.0000 0.0000
06:21 11.3 5.8 69 1020.7 0.0000 0.0000
06:31 11.7 6 68 1020.7 0.0000 0.0000
06:41 12.7 6.5 66 1020.5 0.0000 0.0000
06:51 13.1 6.5 64 1020.5 0.0000 0.0000
07:02 13.2 6.5 64 1020.4 0.0000 0.0000
07:12 13.4 6.7 64 1020.4 0.0000 0.0000
07:22 13.5 6.6 63 1020.3 0.0000 0.0000
07:32 13.8 7.1 64 1020.2 0.0000 0.0000
07:42 14.2 7 62 1020.2 0.0000 0.0000
07:52 14.7 7.3 61 1020.1 0.0000 0.0000
08:02 15.4 7.7 60 1020.1 0.0000 0.0000
08:13 16.1 7.8 58 1020.1 0.0000 0.0000
08:22 16.7 8.4 58 1020 0.0000 0.0000
08:32 17.3 8.4 56 1020 0.0000 0.0000
08:42 17.8 7.8 52 1019.9 0.0000 0.0000
08:53 18.4 8.7 53 1019.9 0.0000 0.0000
09:03 18.9 8.6 51 1019.8 0.0000 0.0000
09:13 19.1 8.4 50 1019.7 0.0000 0.0000
09:23 19.6 8.9 50 1019.6 0.0000 0.0000
09:33 20 9.3 50 1019.7 0.0000 0.0000
09:43 20.5 9.4 49 1019.6 0.0000 0.0000
09:53 20.8 8.8 46 1019.5 0.0000 0.0000
10:04 21.1 9.4 47 1019.3 0.0000 0.0000
10:13 21.4 9.3 46 1019.3 0.0000 0.0000
10:23 21.7 9.3 45 1019.2 0.0000 0.0000
10:34 22 9.2 44 1019.1 0.0000 0.0000
10:44 22.1 9.3 44 1019 0.0000 0.0000
10:54 22.4 9.6 44 1018.9 0.0000 0.0000
11:03 22.6 9.1 42 1018.8 0.0000 0.0000
11:14 22.9 9.3 42 1018.6 0.0000 0.0000
11:24 23.1 9.1 41 1018.5 0.0000 0.0000
11:34 23.4 9.8 42 1018.4 0.0000 0.0000
11:44 23.7 8.9 39 1018.2 0.0000 0.0000
11:54 23.8 8.6 38 1018.1 0.0000 0.0000
12:04 24 9.2 39 1017.9 0.0000 0.0000
12:14 24.3 8.7 37 1017.8 0.0000 0.0000
12:25 24.6 9.4 38 1017.7 0.0000 0.0000
12:35 24.7 8.6 36 1017.5 0.0000 0.0000
12:45 24.8 9.1 37 1017.5 0.0000 0.0000
12:55 25 8.1 34 1017.3 0.0000 0.0000
13:05 25.2 8.2 34 1017.2 0.0000 0.0000
13:15 25.4 7.5 32 1017.1 0.0000 0.0000
13:25 25.5 8.1 33 1017 0.0000 0.0000
13:36 25.8 8.8 34 1017 0.0000 0.0000
13:45 26 8.5 33 1017.1 0.0000 0.0000
13:55 25.5 8.1 33 1017.3 0.0000 0.0000
14:06 24.7 6.9 32 1017.4 0.0000 0.0000
14:16 24.2 6.9 33 1017.5 0.0000 0.0000
14:26 23.3 6.1 33 1017.5 0.0000 0.0000
14:35 22.5 5.9 34 1017.6 0.0000 0.0000
14:46 21.7 6.4 37 1017.6 0.0000 0.0000
14:56 21.2 7.1 40 1017.5 0.0000 0.0000
15:06 20.8 7.1 41 1017.4 0.0000 0.0000
15:16 20.5 6.8 41 1017.2 0.0000 0.0000
15:27 20.3 7 42 1017.3 0.0000 0.0000
15:36 20.3 7.3 43 1017.3 0.0000 0.0000
15:46 20.4 7.4 43 1017 0.0000 0.0000
15:57 20.6 7.6 43 1017 0.0000 0.0000
16:07 21 7.6 42 1016.9 0.0000 0.0000
16:17 21.5 7 39 1016.8 0.0000 0.0000
16:26 21.9 7.3 39 1016.7 0.0000 0.0000
16:37 21.8 7.6 40 1016.7 0.0000 0.0000
16:47 21.8 7.2 39 1016.8 0.0000 0.0000
16:57 21.5 7.3 40 1016.6 0.0000 0.0000
17:08 21.4 7.6 41 1016.4 0.0000 0.0000
17:17 21.5 8.1 42 1016.1 0.0000 0.0000
17:27 21.6 8.2 42 1016.3 0.0000 0.0000
17:37 21.5 8.1 42 1016.2 0.0000 0.0000
17:48 21.2 7.8 42 1016.2 0.0000 0.0000
17:58 21.1 7.7 42 1016.1 0.0000 0.0000
18:08 21.2 8.1 43 1016.1 0.0000 0.0000
18:18 21.2 8.1 43 1016.1 0.0000 0.0000
18:28 21.3 7.9 42 1016 0.0000 0.0000
18:38 21.2 7.8 42 1016 0.0000 0.0000
18:48 21 7.6 42 1015.9 0.0000 0.0000
18:59 20.9 7.9 43 1015.8 0.0000 0.0000
19:09 20.8 7.8 43 1015.7 0.0000 0.0000
19:18 20.7 7.7 43 1015.6 0.0000 0.0000
19:29 20.7 8.4 45 1015.6 0.0000 0.0000
19:39 20.7 8 44 1015.5 0.0000 0.0000
19:49 20.7 8 44 1015.5 0.0000 0.0000
19:58 20.5 7.8 44 1015.4 0.0000 0.0000
20:09 20.3 8 45 1015.4 0.0000 0.0000
20:19 19.8 7.5 45 1015.3 0.0000 0.0000
20:29 19.2 7.6 47 1015.3 0.0000 0.0000
20:39 18.7 8.4 51 1015.3 0.0000 0.0000
20:49 18.3 8 51 1015.3 0.0000 0.0000
20:59 17.9 8.5 54 1015.3 0.0000 0.0000
21:09 17.6 8.7 56 1015.3 0.0000 0.0000
21:20 17.3 8.2 55 1015.2 0.0000 0.0000
21:30 17.1 8.8 58 1015.2 0.0000 0.0000
21:39 16.9 8.3 57 1015.3 0.0000 0.0000
21:49 16.6 8.3 58 1015.5 0.0000 0.0000
22:00 16.3 8.8 61 1015.7 0.0000 0.0000
22:10 15.8 8.5 62 1015.8 0.0000 0.0000
22:20 15.5 8.5 63 1015.9 0.0000 0.0000
22:30 15.6 7.4 58 1015.9 0.0000 0.0000
22:40 15.7 7.2 57 1016 0.0000 0.0000
22:50 15.5 7 57 1015.9 0.0000 0.0000
23:00 15.4 6.9 57 1015.8 0.0000 0.0000
23:11 15.2 6.7 57 1015.7 0.0000 0.0000
23:20 14.9 6.7 58 1015.7 0.0000 0.0000
23:30 14.5 6.1 57 1015.7 0.0000 0.0000
23:41 14.2 5.8 57 1015.7 0.0000 0.0000
23:51 13.7 5.6 58 1015.6 0.0000 0.0000

DAY STATISTIC

2020-06-02
TEMPERATURE
AVERAGE
17.5
HIGH
26.0
13:45
LOW
9.6
03:19
PRESSURE
AVERAGE
1018.6
HIGH
1023.3
00:08
LOW
1015.2
21:20
DEWPOINT
AVERAGE
7.2
HIGH
9.8
11:34
LOW
4.6
02:59
HUMIDITY
AVERAGE
53
HIGH
74
04:00
LOW
32
13:15
PRECIPITATION
RAIN HOUR
0.0
RAIN DAY
0.0
TEMPERATURE (°C)
LOW
9.6
HIGH
26.0
AVERAGE
17.5
PRESSURE (hpa)
LOW
1015.2
HIGH
1023.3
AVERAGE
1018.6
DEVICE